KNFL/NFL METAR and TAF weather

Enter ICAO airport designator
Station Type Date Time Source
KNFL METAR 2019/04/18 22:56 UTC NOAA

KNFL 182256Z VRB05KT 10SM FEW250 25/01 A3020 RMK AO2 SLP189 T02500006


Station Type Date Time Source
KNFL Decoded METAR 2019/04/18 22:56 UTC NOAA

FALLON NAVAL AIR STATION, NV, United States (KNFL) 39-26N 118-41W 1199M
Apr 18, 2019 - 06:56 PM EDT / 2019.04.18 2256 UTC
Wind: Variable at 6 MPH (5 KT):0
Visibility: 10 mile(s):0
Sky conditions: mostly clear
Temperature: 77.0 F (25.0 C)
Dew Point: 33.1 F (0.6 C)
Relative Humidity: 20%
Pressure (altimeter): 30.2 in. Hg (1022 hPa)
ob: KNFL 182256Z VRB05KT 10SM FEW250 25/01 A3020 RMK AO2 SLP189 T02500006
cycle: 23

Station Type Date Time Source
KNFL TAF 2019/04/18 23:06 UTC NOAA

TAF KNFL 1823/1923 VRB06KT 9999 SKC QNH3013INS
FM190600 VRB06KT 9999 SKC QNH3015INS T03/1913Z T27/1923Z FS30123

Example: see airport list